Latest Weather Observations for Cooma Airport

IDN60901

Issued at 4:41 am EST Monday 24 July 2017 (issued every 10 minutes, with the page automatically refreshed every 10 minutes)

About weather observations | Map of Canberra area stations | Latest observations for Canberra area | Other Formats
Station Details ID: 070217 Name: COOMA AIRPORT AWS Lat: -36.29 Lon: 148.97 Height: 930.0 m
Data from the previous 72 hours. | See also: Recent months at Cooma Airport
Date/Time
EST
Temp
°C
App
Temp
°C
Dew
Point
°C
Rel
Hum
%
Delta-T
°C
Wind Press
QNH
hPa
Press
MSL
hPa
Rain since
9am
mm
Dir  Spd
km/h
Gust
km/h
Spd
kts
Gust
kts
24/04:30am -1.5 -3.7 -1.9 97 0.1 CALM 0 6 0 3 1015.0 1016.6 0.0
24/04:00am -1.1 -3.5 -2.8 88 0.6 CALM 0 0 0 0 1015.1 1016.7 0.0
24/03:30am -0.4 -4.5 -3.1 82 0.9 WSW 9 15 5 8 1014.9 1016.5 0.0
24/03:00am 0.3 -3.3 -1.9 85 0.8 SSE 7 9 4 5 1014.9 1016.5 0.0
24/02:30am 3.2 -0.4 0.3 81 1.2 W 9 11 5 6 1014.7 1016.2 0.0
24/02:00am 3.4 -0.2 0.8 83 1.1 WNW 9 13 5 7 1014.7 1016.2 0.0
24/01:30am 0.1 -2.2 -2.3 84 0.9 CALM 0 6 0 3 1014.5 1016.0 0.0
24/01:00am 1.9 -0.1 0.1 88 0.7 CALM 0 0 0 0 1014.2 1015.8 0.0
24/12:30am 3.3 0.2 0.0 79 1.3 NW 6 11 3 6 1014.2 1015.8 0.0
24/12:00am 4.2 0.6 0.5 77 1.5 SSW 9 11 5 6 1014.4 1015.9 0.0
 
Date/Time
EST
Temp
°C
App
Temp
°C
Dew
Point
°C
Rel
Hum
%
Delta-T
°C
Wind Press
QNH
hPa
Press
MSL
hPa
Rain since
9am
mm
Dir  Spd
km/h
Gust
km/h
Spd
kts
Gust
kts
23/11:30pm 6.1 2.7 2.0 75 1.8 WSW 9 11 5 6 1014.6 1016.1 0.0
23/11:00pm 6.5 3.1 1.6 71 2.1 NW 9 20 5 11 1014.7 1016.2 0.0
23/10:30pm 6.8 1.8 1.3 68 2.3 WNW 17 30 9 16 1014.2 1015.8 0.0
23/10:00pm 6.1 1.4 0.6 68 2.3 WNW 15 24 8 13 1014.5 1016.0 0.0
23/09:30pm 6.9 1.4 0.8 65 2.6 WNW 19 30 10 16 1014.0 1015.6 0.0
23/09:00pm 6.9 1.3 0.1 62 2.8 W 19 28 10 15 1014.1 1015.7 0.0
23/08:30pm 7.1 1.6 0.3 62 2.8 WNW 19 28 10 15 1013.9 1015.5 0.0
23/08:00pm 5.9 1.8 0.0 66 2.4 W 11 19 6 10 1014.2 1015.8 0.0
23/07:30pm 6.7 0.5 -0.3 61 2.9 W 22 32 12 17 1013.6 1015.1 0.0
23/07:00pm 6.5 0.2 -0.9 59 3.0 W 22 33 12 18 1013.4 1014.9 0.0
23/06:30pm 6.8 1.1 -1.1 57 3.2 W 19 26 10 14 1012.8 1014.3 0.0
23/06:00pm 6.7 1.0 -0.7 59 3.0 W 19 28 10 15 1012.7 1014.2 0.0
23/05:30pm 6.8 1.9 -0.4 60 2.9 WSW 15 20 8 11 1012.4 1013.9 0.0
23/05:00pm 8.0 1.4 -0.2 56 3.4 WSW 24 33 13 18 1012.1 1013.5 0.0
23/04:30pm 9.2 1.9 0.1 53 3.9 WSW 28 41 15 22 1012.0 1013.4 0.0
23/04:00pm 10.2 2.1 0.0 49 4.4 WSW 32 56 17 30 1011.5 1013.0 0.0
23/03:30pm 11.1 2.5 -0.1 46 4.8 W 35 57 19 31 1011.1 1012.5 0.0
23/03:00pm 11.4 1.0 -0.4 44 5.1 W 44 72 24 39 1010.3 1011.8 0.0
23/02:30pm 12.0 0.5 -0.2 43 5.3 WNW 50 85 27 46 1009.7 1011.1 0.0
23/02:00pm 12.6 0.7 -0.3 41 5.6 W 52 80 28 43 1009.3 1010.8 0.0
23/01:30pm 13.4 2.3 -0.3 39 6.0 W 48 70 26 38 1009.4 1010.9 0.0
23/01:00pm 13.8 3.7 0.1 39 6.1 W 43 72 23 39 1009.9 1011.3 0.0
23/12:30pm 13.7 3.6 0.4 40 5.9 W 43 63 23 34 1010.6 1012.1 0.0
23/12:19pm 13.6 4.9 -0.4 38 6.1 WNW 35 69 19 37 1010.7 1012.2 0.0
23/12:00pm 13.3 5.2 0.0 40 5.9 WNW 32 50 17 27 1011.2 1012.7 0.0
23/11:57am 13.3 6.0 -0.3 39 5.9 WNW 28 46 15 25 1011.3 1012.8 0.0
23/11:30am 13.2 6.6 -0.4 39 5.9 WNW 24 44 13 24 1012.5 1014.0 0.0
23/11:12am 12.6 5.3 0.0 42 5.5 W 28 48 15 26 1013.2 1014.7 0.0
23/11:09am 11.9 5.3 -0.6 42 5.3 W 24 48 13 26 1013.2 1014.7 0.0
23/11:00am 12.3 6.6 -0.6 41 5.5 WNW 19 30 10 16 1013.4 1014.9 0.0
23/10:30am 11.3 4.5 -1.5 41 5.3 WNW 24 39 13 21 1013.7 1015.2 0.0
23/10:00am 10.2 3.8 -1.5 44 4.8 NNW 22 32 12 17 1014.0 1015.6 0.0
23/09:30am 8.5 1.9 -3.3 43 4.6 N 22 32 12 17 1014.5 1016.0 0.0
23/09:00am 8.3 1.7 -3.5 43 4.6 N 22 32 12 17 1014.6 1016.1 0.0
23/08:30am 7.2 2.3 -3.3 47 4.0 NNE 13 17 7 9 1014.8 1016.3 0.0
23/08:00am 5.7 0.4 -3.6 51 3.5 N 15 20 8 11 1015.0 1016.6 0.0
23/07:30am 5.0 -1.3 -4.0 52 3.3 NW 20 26 11 14 1015.0 1016.6 0.0
23/07:00am 5.5 -2.3 -4.1 50 3.5 NW 28 41 15 22 1014.8 1016.3 0.0
23/06:30am 5.8 -2.4 -4.1 49 3.7 NW 30 54 16 29 1014.0 1015.6 0.0
23/06:29am 5.7 -2.1 -4.2 49 3.6 NW 28 44 15 24 1014.0 1015.6 0.0
23/06:00am 2.4 -1.6 -5.5 56 2.8 SE 7 9 4 5 1014.7 1016.2 0.0
23/05:30am 2.8 -1.1 -4.9 57 2.7 S 7 19 4 10 1014.6 1016.1 0.0
23/05:00am 2.8 -1.1 -4.6 58 2.6 SE 7 13 4 7 1014.5 1016.0 0.0
23/04:30am 2.2 -1.8 -5.4 57 2.7 SSE 7 11 4 6 1014.9 1016.5 0.0
23/04:00am 0.5 -3.1 -7.0 57 2.5 ENE 4 9 2 5 1015.0 1016.6 0.0
23/03:30am 2.2 -3.5 -7.4 49 3.2 NNE 15 20 8 11 1015.0 1016.6 0.0
23/03:00am 2.8 -3.8 -7.4 47 3.5 ENE 20 26 11 14 1014.7 1016.2 0.0
23/02:30am 2.4 -4.1 -7.5 48 3.4 ENE 19 20 10 11 1015.1 1016.7 0.0
23/02:00am 2.2 -4.0 -9.1 43 3.6 NNE 17 20 9 11 1015.3 1016.9 0.0
23/01:30am 4.9 -1.3 -8.5 37 4.4 NNW 17 20 9 11 1015.7 1017.2 0.0
23/01:00am 1.4 -3.6 -8.1 49 3.1 NE 11 15 6 8 1016.0 1017.6 0.0
23/12:30am -0.4 -5.3 -7.0 61 2.1 NE 11 15 6 8 1015.9 1017.5 0.0
23/12:00am 1.2 -4.4 -5.9 59 2.4 NE 15 19 8 10 1016.5 1018.1 0.0
 
Date/Time
EST
Temp
°C
App
Temp
°C
Dew
Point
°C
Rel
Hum
%
Delta-T
°C
Wind Press
QNH
hPa
Press
MSL
hPa
Rain since
9am
mm
Dir  Spd
km/h
Gust
km/h
Spd
kts
Gust
kts
22/11:30pm 0.9 -5.1 -6.6 57 2.5 ENE 17 19 9 10 1016.9 1018.5 0.0
22/11:00pm 0.6 -3.9 -6.7 58 2.4 NNE 9 15 5 8 1017.1 1018.7 0.0
22/10:30pm -0.1 -6.0 -6.1 64 2.0 NNE 17 20 9 11 1017.0 1018.6 0.0
22/10:00pm 0.0 -5.2 -6.0 64 2.0 NE 13 17 7 9 1017.2 1018.8 0.0
22/09:30pm 0.6 -4.9 -5.4 64 2.1 ENE 15 17 8 9 1017.3 1018.9 0.0
22/09:00pm 0.2 -5.4 -6.6 60 2.2 NE 15 17 8 9 1017.3 1018.9 0.0
22/08:30pm 0.1 -4.9 -7.8 55 2.5 NE 11 17 6 9 1017.2 1018.8 0.0
22/08:00pm 2.2 -3.2 -8.5 45 3.5 NNE 13 20 7 11 1017.4 1019.0 0.0
22/07:30pm 2.1 -2.6 -9.4 42 3.7 NNE 9 13 5 7 1017.3 1018.9 0.0
22/07:00pm 3.4 -0.8 -10.2 36 4.4 E 6 13 3 7 1017.1 1018.7 0.0
22/06:30pm 5.3 1.4 -11.3 29 5.1 N 4 11 2 6 1017.1 1018.7 0.0
22/06:00pm 6.7 0.7 -11.4 26 5.6 WNW 15 26 8 14 1017.1 1018.7 0.0
22/05:30pm 6.8 2.5 -10.9 27 5.6 WNW 6 13 3 7 1017.0 1018.6 0.0
22/05:00pm 6.3 1.2 -9.6 31 5.1 NNW 11 19 6 10 1016.8 1018.4 0.0
22/04:30pm 8.6 3.2 -8.8 28 5.9 NNE 13 19 7 10 1016.9 1018.5 0.0
22/04:00pm 8.4 2.4 -11.5 23 6.3 NW 15 24 8 13 1017.1 1018.7 0.0
22/03:30pm 8.4 2.4 -11.0 24 6.3 N 15 22 8 12 1017.1 1018.7 0.0
22/03:00pm 9.9 4.4 -9.2 25 6.6 NNW 13 20 7 11 1017.3 1018.9 0.0
22/02:30pm 10.2 3.3 -11.1 21 7.0 WNW 20 28 11 15 1017.6 1019.3 0.0
22/02:00pm 9.9 3.3 -9.7 24 6.6 WNW 19 28 10 15 1017.9 1019.5 0.0
22/01:30pm 10.4 2.7 -11.0 21 7.1 WNW 24 33 13 18 1018.1 1019.7 0.0
22/01:00pm 10.4 3.6 -9.8 23 6.9 WNW 20 32 11 17 1018.7 1020.4 0.0
22/12:30pm 10.6 3.9 -10.2 22 7.0 W 19 26 10 14 1018.8 1020.5 0.0
22/12:00pm 9.3 5.1 -3.6 40 5.0 NE 9 15 5 8 1019.4 1021.1 0.0
22/11:30am 7.0 2.3 -1.7 54 3.5 NE 13 17 7 9 1019.9 1021.6 0.0
22/11:00am 3.6 -1.4 -1.2 71 1.9 NE 15 20 8 11 1020.4 1022.1 0.0
22/10:30am 1.6 -3.9 -2.3 75 1.4 NE 17 20 9 11 1020.6 1022.3 0.0
22/10:00am -0.3 -6.4 -3.5 79 1.1 NE 19 22 10 12 1020.7 1022.4 0.0
22/09:30am -1.2 -7.2 -2.9 88 0.5 NE 19 20 10 11 1020.9 1022.6 0.0
22/09:00am -2.2 -7.5 -3.3 92 0.3 NNE 15 19 8 10 1020.9 1022.6 0.2
22/08:30am -3.5 -8.5 -4.3 94 0.1 NE 13 15 7 8 1020.8 1022.5 0.0
22/08:00am -5.1 -9.8 -5.2 99 -0.2 NNE 11 15 6 8 1020.7 1022.4 0.0
22/07:30am -6.9 -12.2 -7.0 99 -0.2 NNE 13 15 7 8 1020.7 1022.4 0.0
22/07:00am -6.7 -12.0 -7.0 98 -0.2 N 13 17 7 9 1020.8 1022.5 0.0
22/06:30am -7.0 -11.5 -7.1 99 -0.2 N 9 11 5 6 1020.6 1022.3 0.0
22/06:14am -7.4 -11.6 -7.5 99 -0.2 NNE 7 11 4 6 1020.6 1022.3 0.0
22/06:00am -7.5 -12.1 -7.6 99 -0.2 NNE 9 11 5 6 1020.6 1022.3 0.0
22/05:57am -7.6 -12.2 -7.7 99 -0.2 NNE 9 11 5 6 1020.6 1022.3 0.0
22/05:56am -7.6 -12.2 -7.7 99 -0.2 NNE 9 11 5 6 1020.7 1022.4 0.0
22/05:30am -8.7 -13.8 -9.4 95 -0.1 NNE 11 15 6 8 1020.4 1022.1 0.0
22/05:00am -7.3 -11.9 -7.4 99 -0.2 NE 9 11 5 6 1020.2 1021.8 0.0
22/04:30am -6.8 -12.1 -6.9 99 -0.2 NNE 13 15 7 8 1020.2 1021.8 0.0
22/04:00am -6.7 -11.6 -6.8 99 -0.2 NNE 11 15 6 8 1020.0 1021.7 0.0
22/03:30am -7.3 -12.6 -7.4 99 -0.2 NNE 13 15 7 8 1020.3 1021.9 0.0
22/03:00am -6.5 -11.4 -6.8 98 -0.2 NNE 11 13 6 7 1020.7 1022.4 0.0
22/02:30am -7.0 -11.9 -7.1 99 -0.2 NNE 11 13 6 7 1020.8 1022.5 0.0
22/02:00am -8.0 -12.3 -9.1 92 0.0 N 7 9 4 5 1021.4 1023.1 0.0
22/01:30am -7.3 -11.5 -8.1 94 0.0 N 7 9 4 5 1021.5 1023.2 0.0
22/01:00am -7.1 -11.4 -8.5 90 0.1 N 7 9 4 5 1021.6 1023.3 0.0
22/12:30am -6.2 -10.2 -7.4 91 0.1 NNE 6 7 3 4 1021.8 1023.5 0.0
22/12:00am -4.3 -8.0 -4.4 99 -0.1 NNE 6 7 3 4 1022.2 1024.0 0.0
 
Date/Time
EST
Temp
°C
App
Temp
°C
Dew
Point
°C
Rel
Hum
%
Delta-T
°C
Wind Press
QNH
hPa
Press
MSL
hPa
Rain since
9am
mm
Dir  Spd
km/h
Gust
km/h
Spd
kts
Gust
kts
21/11:30pm -4.5 -8.4 -4.6 99 -0.2 NNE 7 9 4 5 1022.3 1024.1 0.0
21/11:00pm -5.6 -10.0 -6.1 96 -0.1 NNE 9 11 5 6 1022.2 1024.0 0.0
21/10:30pm -4.8 -9.1 -4.9 99 -0.2 N 9 9 5 5 1022.3 1024.1 0.0
21/10:00pm -5.5 -8.6 -6.4 93 0.1 NNE 2 9 1 5 1022.3 1024.1 0.0
21/09:30pm -5.2 -7.9 -6.2 93 0.1 CALM 0 0 0 0 1022.2 1024.0 0.0
21/09:00pm -4.5 -7.1 -5.2 95 0.0 CALM 0 0 0 0 1022.0 1023.7 0.0
21/08:30pm -4.2 -6.8 -5.2 93 0.1 CALM 0 0 0 0 1021.9 1023.6 0.0
21/08:00pm -3.6 -6.9 -4.7 92 0.2 N 4 6 2 3 1021.9 1023.6 0.0
21/07:30pm -3.1 -6.0 -4.6 89 0.4 ENE 2 7 1 4 1021.9 1023.6 0.0
21/07:00pm -2.2 -4.7 -3.8 89 0.4 CALM 0 0 0 0 1021.9 1023.6 0.0
21/06:30pm -1.5 -4.0 -3.8 84 0.7 CALM 0 0 0 0 1021.8 1023.5 0.0
21/06:00pm 0.0 -3.8 -3.4 78 1.2 NNW 7 11 4 6 1021.6 1023.3 0.0
21/05:30pm 0.9 -3.1 -2.0 81 1.1 S 9 9 5 5 1021.3 1023.0 0.0
21/05:00pm 3.4 -0.1 -1.2 72 1.8 S 7 9 4 5 1021.3 1023.0 0.0
21/04:30pm 5.9 1.3 -1.3 60 2.9 S 13 15 7 8 1021.3 1023.0 0.0
21/04:00pm 6.8 2.2 -1.1 57 3.2 S 13 19 7 10 1021.1 1022.8 0.0
21/03:30pm 7.0 2.0 -1.4 55 3.4 SSW 15 20 8 11 1021.1 1022.8 0.0
21/03:00pm 7.1 1.6 -2.3 51 3.7 S 17 22 9 12 1020.9 1022.6 0.0
21/02:30pm 7.1 1.7 -1.3 55 3.4 SSW 17 24 9 13 1020.9 1022.6 0.0
21/02:00pm 6.8 2.1 -1.8 54 3.4 SSW 13 19 7 10 1020.9 1022.6 0.0
21/01:30pm 6.4 1.0 -1.2 58 3.0 SSW 17 24 9 13 1021.0 1022.7 0.0
21/01:00pm 6.2 1.8 0.5 67 2.4 WSW 13 20 7 11 1021.3 1023.0 0.0
21/12:30pm 5.7 1.4 0.7 70 2.1 SW 13 19 7 10 1021.5 1023.2 0.0
21/12:00pm 5.1 -0.3 1.2 76 1.6 SW 19 26 10 14 1021.8 1023.5 0.0
21/11:30am 5.0 -0.6 1.5 78 1.5 SW 20 26 11 14 1022.1 1023.9 0.0
21/11:00am 4.9 -0.4 1.7 80 1.3 SSW 19 28 10 15 1022.3 1024.1 0.0
21/10:30am 4.5 -1.4 1.7 82 1.2 SW 22 33 12 18 1022.2 1024.0 0.0
21/10:19am 4.5 -0.9 2.5 87 0.9 SW 20 28 11 15 1022.1 1023.9 0.0
21/10:00am 4.0 -2.2 2.4 89 0.7 SW 24 32 13 17 1022.0 1023.7 0.0
21/09:54am 3.8 -2.4 2.3 90 0.6 SW 24 32 13 17 1022.0 1023.7 0.0
21/09:30am 3.7 -2.1 2.2 90 0.6 SW 22 28 12 15 1021.8 1023.5 0.0
21/09:00am 2.8 -2.4 2.7 99 0.0 SW 19 22 10 12 1021.6 1023.3 2.2
21/08:30am 1.9 -3.6 1.8 99 0.0 WSW 20 26 11 14 1021.3 1023.0 2.2
21/08:00am 1.5 -3.5 1.4 99 0.0 WSW 17 22 9 12 1020.9 1022.6 1.6
21/07:37am 1.1 -3.2 1.0 99 0.0 WSW 13 17 7 9 1020.8 1022.5 1.4
21/07:30am 0.9 -3.1 0.8 99 0.0 SW 11 15 6 8 1020.8 1022.5 1.2
21/07:00am 1.0 -3.3 0.9 99 0.0 SW 13 17 7 9 1020.5 1022.2 1.0
21/06:30am 0.9 -4.2 0.8 99 0.0 SW 17 19 9 10 1020.0 1021.7 0.8
21/06:00am 0.7 -3.7 0.6 99 0.0 SW 13 17 7 9 1019.8 1021.5 0.8
21/05:30am 0.8 -3.9 0.7 99 0.0 SW 15 17 8 9 1019.6 1021.3 0.8
21/05:02am 0.8 -3.9 0.7 99 0.0 WSW 15 20 8 11 1019.2 1020.8 0.8
21/05:00am 0.9 -4.2 0.8 99 0.0 WSW 17 20 9 11 1019.2 1020.8 0.8

Latest Capital City Observations: Canberra | Sydney | Melbourne | Brisbane | Adelaide | Perth | Hobart | Darwin

Other Formats:

Comma delimited format used in spreadsheet applications
http://www.bom.gov.au/fwo/IDN60903/IDN60903.94921.axf

JavaScript Object Notation format (JSON) in row-major order
http://www.bom.gov.au/fwo/IDN60903/IDN60903.94921.json